RJAW/IWO METAR and TAF weather

Enter ICAO airport designator
Station Type Date Time Source
RJAW METAR 2019/12/07 15:00 UTC NOAA

RJAW 071500Z 20007KT 1500 R07/0800U BCFG BR SCT002 BKN005 24/24 Q1013 RMK 4ST002 7ST005 A2992


Station Type Date Time Source
RJAW Decoded METAR 2019/12/07 15:00 UTC NOAA

Iwojima, Japan (RJAW) 24-47N 141-19E 116M
Dec 07, 2019 - 10:00 AM EST / 2019.12.07 1500 UTC
Wind: from the SSW (200 degrees) at 8 MPH (7 KT):0
Visibility: less than 1 mile:0
Sky conditions: mostly cloudy
Weather: patches of fog; mist
Temperature: 75 F (24 C)
Dew Point: 75 F (24 C)
Relative Humidity: 100%
Pressure (altimeter): 29.91 in. Hg (1013 hPa)
ob: RJAW 071500Z 20007KT 1500 R07/0800U BCFG BR SCT002 BKN005 24/24 Q1013 RMK 4ST002 7ST005 A2992
cycle: 15

Station Type Date Time Source
RJAW TAF UTC NOAA

Error!

Example: see airport list